createdAt,value
2018-08-13T00:00:03.800Z,77.11
2018-08-13T00:01:13.613Z,77.34
2018-08-13T00:02:23.187Z,77.11
2018-08-13T00:03:33.263Z,77.01
2018-08-13T00:04:43.341Z,77.69
2018-08-13T00:05:53.417Z,77.3
2018-08-13T00:07:03.333Z,77.3
2018-08-13T00:08:13.456Z,77.3
2018-08-13T00:09:23.514Z,77.5
2018-08-13T00:10:33.588Z,77.5
2018-08-13T00:11:43.685Z,77.5
2018-08-13T00:12:53.754Z,77.4
2018-08-13T00:14:03.551Z,77.5
2018-08-13T00:15:13.660Z,77.4
2018-08-13T00:16:23.740Z,77.59
2018-08-13T00:17:33.947Z,77.5
2018-08-13T00:18:44.423Z,77.3
2018-08-13T00:19:54.501Z,77.3
2018-08-13T00:21:04.306Z,77.3
2018-08-13T00:22:14.121Z,77.26
2018-08-13T00:23:24.205Z,77.26
2018-08-13T00:24:33.755Z,77.26
2018-08-13T00:25:43.832Z,77.65
2018-08-13T00:26:54.018Z,77.07
2018-08-13T00:28:04.088Z,77.07
2018-08-13T00:29:14.160Z,77.07
2018-08-13T00:30:24.241Z,77.07
2018-08-13T00:31:34.330Z,77.17
2018-08-13T00:32:44.446Z,77.07
2018-08-13T00:33:54.546Z,77.17
2018-08-13T00:35:04.637Z,77.07
2018-08-13T00:36:14.731Z,77.07
2018-08-13T00:37:24.803Z,77.55
2018-08-13T00:38:34.928Z,77.65
2018-08-13T00:39:45.000Z,77.23
2018-08-13T00:40:55.104Z,77.26
2018-08-13T00:42:05.199Z,77.46
2018-08-13T00:43:15.274Z,77.23
2018-08-13T00:44:24.873Z,77.51
2018-08-13T00:45:34.956Z,77.07
2018-08-13T00:46:45.072Z,77.51
2018-08-13T00:47:54.893Z,77.23
2018-08-13T00:49:05.002Z,77.03
2018-08-13T00:50:14.813Z,77.23
2018-08-13T00:51:24.622Z,77.13
2018-08-13T00:52:34.709Z,77.03
2018-08-13T00:53:44.777Z,77.03
2018-08-13T00:54:54.594Z,77.03
2018-08-13T00:56:04.664Z,77.23
2018-08-13T00:57:14.742Z,77.51
2018-08-13T00:58:24.832Z,76.93
2018-08-13T00:59:35.173Z,77.61
2018-08-13T01:00:45.261Z,77.61
2018-08-13T01:01:55.126Z,77.71
2018-08-13T01:03:05.204Z,77.33
2018-08-13T01:04:15.311Z,77.61
2018-08-13T01:05:25.403Z,77.61
2018-08-13T01:06:35.234Z,77.61
2018-08-13T01:07:45.351Z,77.23
2018-08-13T01:08:55.438Z,77.42
2018-08-13T01:10:05.671Z,77.23
2018-08-13T01:11:15.733Z,77.42
2018-08-13T01:12:25.817Z,77.23
2018-08-13T01:13:35.894Z,77.28
2018-08-13T01:14:45.744Z,77.58
2018-08-13T01:15:55.583Z,77.61
2018-08-13T01:17:05.731Z,77.03
2018-08-13T01:18:15.801Z,77.23
2018-08-13T01:19:25.619Z,77.58
2018-08-13T01:20:35.726Z,77.19
2018-08-13T01:21:45.534Z,76.9
2018-08-13T01:22:55.604Z,77.19
2018-08-13T01:24:05.682Z,77.58
2018-08-13T01:25:15.753Z,77.19
2018-08-13T01:26:25.848Z,77.19
2018-08-13T01:27:35.405Z,77.38
2018-08-13T01:28:45.488Z,77.38
2018-08-13T01:29:55.320Z,77.19
2018-08-13T01:31:05.436Z,77.38
2018-08-13T01:32:14.976Z,77.67
2018-08-13T01:33:25.064Z,77.58
2018-08-13T01:34:35.155Z,77.28
2018-08-13T01:35:45.231Z,77.19
2018-08-13T01:36:55.598Z,77.19
2018-08-13T01:38:05.450Z,77.67
2018-08-13T01:39:15.023Z,76.8
2018-08-13T01:40:25.091Z,77
2018-08-13T01:41:35.217Z,77
2018-08-13T01:42:45.095Z,77
2018-08-13T01:43:54.965Z,77.09
2018-08-13T01:45:05.036Z,77
2018-08-13T01:46:14.840Z,77.58
2018-08-13T01:47:24.912Z,77
2018-08-13T01:48:34.997Z,77
2018-08-13T01:49:44.543Z,77.28
2018-08-13T01:50:54.625Z,77
2018-08-13T01:52:04.709Z,77
2018-08-13T01:53:14.772Z,77.15
2018-08-13T01:54:24.908Z,77.58
2018-08-13T01:55:35.005Z,77.25
2018-08-13T01:56:45.085Z,77.53
2018-08-13T01:57:55.160Z,77.53
2018-08-13T01:59:04.972Z,77.53
2018-08-13T02:00:14.890Z,77.15
2018-08-13T02:01:24.911Z,76.96
2018-08-13T02:02:35.655Z,76.96
2018-08-13T02:03:45.478Z,76.96
2018-08-13T02:04:55.538Z,77.25
2018-08-13T02:06:05.718Z,77.15
2018-08-13T02:07:15.798Z,77.06
2018-08-13T02:08:26.072Z,77.15
2018-08-13T02:09:36.167Z,76.96
2018-08-13T02:10:45.982Z,77.06
2018-08-13T02:11:56.055Z,76.86
2018-08-13T02:13:06.175Z,76.96
2018-08-13T02:14:15.985Z,76.96
2018-08-13T02:15:26.066Z,77.21
2018-08-13T02:16:36.125Z,77.15
2018-08-13T02:17:46.198Z,76.96
2018-08-13T02:18:56.297Z,77.25
2018-08-13T02:20:06.388Z,76.92
2018-08-13T02:21:16.233Z,76.92
2018-08-13T02:22:26.293Z,76.92
2018-08-13T02:23:36.357Z,77.11
2018-08-13T02:24:46.165Z,77.11
2018-08-13T02:25:56.239Z,77.21
2018-08-13T02:27:06.313Z,77.11
2018-08-13T02:28:16.159Z,77.11
2018-08-13T02:29:26.227Z,76.82
2018-08-13T02:30:36.327Z,76.73
2018-08-13T02:31:46.417Z,77.5
2018-08-13T02:32:56.517Z,77.11
2018-08-13T02:34:06.626Z,77.59
2018-08-13T02:35:16.712Z,76.82
2018-08-13T02:36:26.821Z,76.82
2018-08-13T02:37:36.912Z,77.4
2018-08-13T02:38:47.290Z,76.82
2018-08-13T02:39:57.577Z,77.5
2018-08-13T02:41:07.703Z,76.92
2018-08-13T02:42:17.526Z,77.01
2018-08-13T02:43:27.658Z,76.92
2018-08-13T02:44:37.766Z,77.01
2018-08-13T02:45:47.918Z,76.92
2018-08-13T02:46:57.774Z,76.92
2018-08-13T02:48:07.854Z,76.92
2018-08-13T02:49:17.680Z,77.01
2018-08-13T02:50:27.489Z,76.92
2018-08-13T02:51:37.298Z,76.88
2018-08-13T02:52:46.856Z,76.92
2018-08-13T02:53:56.935Z,76.88
2018-08-13T02:55:07.225Z,77.11
2018-08-13T02:56:17.095Z,76.98
2018-08-13T02:57:27.197Z,76.88
2018-08-13T02:58:37.067Z,76.88
2018-08-13T02:59:46.627Z,77.08
2018-08-13T03:00:56.701Z,77.08
2018-08-13T03:02:06.787Z,77.08
2018-08-13T03:35:00.403Z,72.18
2018-08-13T03:36:10.246Z,72.18
2018-08-13T03:37:20.304Z,72.85
2018-08-13T03:38:30.379Z,73.24
2018-08-13T03:39:40.478Z,74.19
2018-08-13T03:40:50.305Z,74.68
2018-08-13T03:42:00.411Z,74.68
2018-08-13T03:43:09.952Z,75.35
2018-08-13T03:44:20.028Z,75.67
2018-08-13T03:45:30.104Z,76.06
2018-08-13T03:46:40.215Z,75.96
2018-08-13T03:47:50.302Z,76.15
2018-08-13T03:49:00.367Z,75.96
2018-08-13T03:50:10.473Z,76.67
2018-08-13T03:51:20.558Z,76.67
2018-08-13T03:52:30.621Z,76.77
2018-08-13T03:53:40.492Z,76.57
2018-08-13T03:54:50.668Z,76.39
2018-08-13T03:56:00.749Z,76.42
2018-08-13T03:57:10.874Z,76.71
2018-08-13T03:58:20.998Z,76.71
2018-08-13T03:59:31.096Z,76.52
2018-08-13T04:00:41.156Z,76.52
2018-08-13T04:01:50.959Z,76.52
2018-08-13T04:03:00.767Z,76.56
2018-08-13T04:04:10.908Z,76.56
2018-08-13T04:05:20.765Z,76.65
2018-08-13T04:06:30.892Z,76.65
2018-08-13T04:07:40.976Z,76.65
2018-08-13T04:08:51.053Z,76.56
2018-08-13T04:10:01.389Z,76.65
2018-08-13T04:11:11.463Z,76.75
2018-08-13T04:12:21.582Z,76.5
2018-08-13T04:13:31.666Z,76.21
2018-08-13T04:14:41.744Z,76.31
2018-08-13T04:15:51.869Z,76.5
2018-08-13T04:17:02.176Z,76.01
2018-08-13T04:18:12.265Z,76.11
2018-08-13T04:19:22.343Z,76.11
2018-08-13T04:20:32.437Z,75.92
2018-08-13T04:21:42.274Z,76.5
2018-08-13T04:22:52.078Z,76.5
2018-08-13T04:24:02.162Z,76.25
2018-08-13T04:25:12.243Z,76.06
2018-08-13T04:26:22.550Z,76.15
2018-08-13T04:27:32.647Z,76.06
2018-08-13T04:28:42.719Z,75.76
2018-08-13T04:29:52.812Z,74.93
2018-08-13T04:31:02.898Z,74.68
2018-08-13T04:32:13.005Z,74.43
2018-08-13T04:33:23.181Z,72.99
2018-08-13T04:34:33.021Z,72.38
2018-08-13T04:35:42.841Z,73.48
2018-08-13T04:36:52.640Z,73.54
2018-08-13T04:38:03.261Z,73.63
2018-08-13T04:39:13.360Z,74.02
2018-08-13T04:40:23.452Z,74.99
2018-08-13T04:41:33.523Z,75.53
2018-08-13T04:42:43.661Z,75.72
2018-08-13T04:43:53.731Z,76.2
2018-08-13T04:45:03.811Z,76.01
2018-08-13T04:46:13.628Z,75.82
2018-08-13T04:47:23.701Z,75.76
2018-08-13T04:48:33.523Z,76.05
2018-08-13T04:49:43.644Z,76.34
2018-08-13T04:50:53.465Z,76.15
2018-08-13T04:52:03.612Z,75.51
2018-08-13T04:53:13.862Z,74.19
2018-08-13T04:54:23.951Z,73.68
2018-08-13T04:55:34.008Z,72.4
2018-08-13T04:56:44.095Z,70.63
2018-08-13T04:57:53.901Z,69.18
2018-08-13T04:59:03.931Z,68.8
2018-08-13T05:00:14.104Z,68.29
2018-08-13T05:01:24.206Z,67.73
2018-08-13T05:02:34.283Z,67.8
2018-08-13T05:03:44.549Z,67.44
2018-08-13T05:04:54.356Z,67.18
2018-08-13T05:06:03.970Z,67.41
2018-08-13T05:07:14.075Z,68.03
2018-08-13T05:08:24.597Z,67.77
2018-08-13T05:09:34.680Z,67.97
2018-08-13T05:10:44.232Z,67.8
2018-08-13T05:11:54.312Z,68.19
2018-08-13T05:13:04.405Z,67.83
2018-08-13T05:14:14.493Z,68.16
2018-08-13T05:15:24.319Z,67.97
2018-08-13T05:16:34.126Z,67.68
2018-08-13T05:17:45.031Z,67.8
2018-08-13T05:18:54.843Z,68.78
2018-08-13T05:20:04.935Z,68.78
2018-08-13T05:21:14.818Z,67.64
2018-08-13T05:22:25.392Z,67.94
2018-08-13T05:23:35.517Z,67.74
2018-08-13T05:24:45.334Z,68.13
2018-08-13T05:25:55.158Z,68.23
2018-08-13T05:27:05.005Z,68.43
2018-08-13T05:28:14.817Z,68.82
2018-08-13T05:29:24.911Z,68.62
2018-08-13T05:30:35.061Z,68.52
2018-08-13T05:31:44.881Z,68.91
2018-08-13T05:32:54.957Z,68.82
2018-08-13T05:34:05.040Z,69.01
2018-08-13T05:35:15.177Z,68.72
2018-08-13T05:36:25.305Z,68.72
2018-08-13T05:37:35.386Z,68.62
2018-08-13T05:38:45.470Z,68.52
2018-08-13T05:39:55.555Z,69.21
2018-08-13T05:41:05.372Z,69.31
2018-08-13T05:42:15.457Z,69.21
2018-08-13T05:43:25.525Z,69.4
2018-08-13T05:44:35.625Z,69.01
2018-08-13T05:45:45.717Z,69.6
2018-08-13T05:46:55.805Z,69.7
2018-08-13T05:48:05.633Z,70.29
2018-08-13T05:49:15.719Z,70.29
2018-08-13T05:50:25.799Z,69.99
2018-08-13T05:51:35.633Z,70.45
2018-08-13T05:52:45.718Z,70.45
2018-08-13T05:53:55.994Z,70.74
2018-08-13T05:55:06.071Z,70.74
2018-08-13T05:56:16.163Z,70.94
2018-08-13T05:57:26.454Z,70.94
2018-08-13T05:58:36.377Z,71.49
2018-08-13T05:59:46.474Z,72.72
2018-08-13T06:00:56.282Z,74.28
2018-08-13T06:02:06.344Z,74.76
2018-08-13T06:03:16.715Z,75.79
2018-08-13T06:04:26.920Z,76.53
2018-08-13T06:05:36.982Z,76.5
2018-08-13T06:06:47.070Z,76.61
2018-08-13T06:07:57.147Z,76.51
2018-08-13T06:09:07.248Z,76.81
2018-08-13T06:10:17.383Z,76.97
2018-08-13T06:11:27.850Z,76.48
2018-08-13T06:12:38.054Z,76.77
2018-08-13T06:13:48.140Z,76.67
2018-08-13T06:14:58.225Z,76.09
2018-08-13T06:16:08.619Z,76.25
2018-08-13T06:17:18.690Z,76.15
2018-08-13T06:18:28.770Z,76.15
2018-08-13T06:19:38.591Z,76.11
2018-08-13T06:20:48.400Z,76.21
2018-08-13T06:21:58.496Z,75.92
2018-08-13T06:23:08.318Z,76.21
2018-08-13T06:24:18.562Z,76.31
2018-08-13T06:25:28.839Z,76.4
2018-08-13T06:26:38.964Z,75.43
2018-08-13T06:27:49.046Z,75.34
2018-08-13T06:28:59.130Z,75.62
2018-08-13T06:30:09.343Z,75.53
2018-08-13T06:31:19.850Z,75.1
2018-08-13T06:32:29.937Z,75.2
2018-08-13T06:33:40.107Z,75.04
2018-08-13T06:34:50.192Z,74.75
2018-08-13T06:36:00.409Z,74.75
2018-08-13T06:37:10.621Z,74.95
2018-08-13T06:38:20.978Z,74.95
2018-08-13T06:39:31.117Z,74.75
2018-08-13T06:40:41.188Z,74.85
2018-08-13T06:41:51.030Z,75.08
2018-08-13T06:43:01.171Z,75.24
2018-08-13T06:44:11.242Z,75.47
2018-08-13T06:45:21.127Z,74.98
2018-08-13T06:46:31.214Z,75.18
2018-08-13T06:47:41.303Z,75.08
2018-08-13T06:48:51.404Z,75.08
2018-08-13T06:50:01.222Z,75.27
2018-08-13T06:51:11.038Z,75.18
2018-08-13T06:52:21.118Z,75.43
2018-08-13T06:53:31.206Z,75.27
2018-08-13T06:54:41.294Z,75.27
2018-08-13T06:55:51.369Z,75.37
2018-08-13T06:57:01.446Z,75.47
2018-08-13T06:58:11.546Z,75.47
2018-08-13T06:59:21.617Z,74.98
2018-08-13T07:00:31.694Z,75.37
2018-08-13T07:01:41.545Z,75.37
2018-08-13T07:02:51.378Z,75.57
2018-08-13T07:04:01.475Z,74.69
2018-08-13T07:05:11.349Z,75.31
2018-08-13T07:06:20.895Z,75.12
2018-08-13T07:07:30.457Z,74.82
2018-08-13T07:08:40.546Z,74.82
2018-08-13T07:09:50.632Z,75.02
2018-08-13T07:11:00.729Z,74.92
2018-08-13T07:12:10.579Z,75.02
2018-08-13T07:13:20.661Z,74.82
2018-08-13T07:14:30.975Z,75.02
2018-08-13T07:15:41.211Z,74.96
2018-08-13T07:16:51.585Z,74.38
2018-08-13T07:18:01.416Z,75.15
2018-08-13T07:19:11.485Z,74.48
2018-08-13T07:20:21.292Z,75.15
2018-08-13T07:21:31.409Z,74.38
2018-08-13T07:22:41.247Z,74.86
2018-08-13T07:23:51.328Z,74.28
2018-08-13T07:25:01.164Z,74.38
2018-08-13T07:26:11.243Z,74.57
2018-08-13T07:27:21.333Z,74.48
2018-08-13T07:28:31.486Z,74.38
2018-08-13T07:29:41.573Z,74.38
2018-08-13T07:30:51.642Z,74.57
2018-08-13T07:32:01.737Z,74.32
2018-08-13T07:33:11.560Z,74.71
2018-08-13T07:34:22.227Z,74.61
2018-08-13T07:35:32.355Z,74.41
2018-08-13T07:36:42.476Z,74.51
2018-08-13T07:37:52.606Z,74.45
2018-08-13T07:39:02.983Z,74.74
2018-08-13T07:40:13.448Z,74.45
2018-08-13T07:41:23.547Z,74.65
2018-08-13T07:42:33.401Z,74.93
2018-08-13T07:43:43.936Z,74.65
2018-08-13T07:44:53.837Z,74.68
2018-08-13T07:46:03.933Z,74.87
2018-08-13T07:47:14.028Z,74.68
2018-08-13T07:48:24.133Z,74.68
2018-08-13T07:49:34.295Z,74.68
2018-08-13T07:50:44.562Z,74.58
2018-08-13T07:51:54.877Z,74.78
2018-08-13T07:53:04.970Z,74.78
2018-08-13T07:54:16.045Z,74.68
2018-08-13T07:55:26.570Z,74.72
2018-08-13T07:56:36.392Z,74.91
2018-08-13T07:57:46.524Z,74.91
2018-08-13T07:58:56.645Z,74.82
2018-08-13T08:00:07.109Z,74.82
2018-08-13T08:01:17.239Z,74.91
2018-08-13T08:02:27.395Z,74.85
2018-08-13T08:03:37.228Z,74.37
2018-08-13T08:04:47.331Z,74.37
2018-08-13T08:05:57.473Z,74.56
2018-08-13T08:07:07.576Z,74.46
2018-08-13T08:08:17.667Z,74.66
2018-08-13T08:09:27.510Z,74.56
2018-08-13T08:10:37.631Z,74.56
2018-08-13T08:11:47.499Z,74.79
2018-08-13T08:12:57.077Z,74.6
2018-08-13T08:14:07.155Z,74.6
2018-08-13T08:15:17.256Z,74.5
2018-08-13T08:16:27.349Z,74.6
2018-08-13T08:17:37.242Z,74.6
2018-08-13T08:18:47.348Z,74.79
2018-08-13T08:19:57.429Z,74.69
2018-08-13T08:21:07.936Z,74.6
2018-08-13T08:22:18.164Z,74.6
2018-08-13T08:23:28.247Z,74.83
2018-08-13T08:24:38.327Z,74.54
2018-08-13T08:25:48.418Z,74.93
2018-08-13T08:26:57.997Z,74.89
2018-08-13T08:28:08.602Z,74.83
2018-08-13T08:29:18.780Z,74.98
2018-08-13T08:30:29.280Z,75.02
2018-08-13T08:31:39.120Z,74.73
2018-08-13T08:32:49.209Z,74.93
2018-08-13T08:33:59.287Z,74.93
2018-08-13T08:35:09.491Z,74.63
2018-08-13T08:36:19.561Z,74.54
2018-08-13T08:37:29.702Z,74.18
2018-08-13T08:38:39.817Z,74.57
2018-08-13T08:39:49.918Z,74.48
2018-08-13T08:41:00.422Z,74.28
2018-08-13T08:42:10.171Z,74.18
2018-08-13T08:43:20.458Z,74.38
2018-08-13T08:44:30.286Z,74.18
2018-08-13T08:45:40.390Z,74.32
2018-08-13T08:46:50.705Z,74.61
2018-08-13T08:48:01.021Z,74.22
2018-08-13T08:49:11.117Z,75.1
2018-08-13T08:50:21.186Z,74.61
2018-08-13T08:51:31.275Z,74.32
2018-08-13T08:52:41.412Z,74.02
2018-08-13T08:53:51.572Z,74.51
2018-08-13T08:55:01.384Z,74.51
2018-08-13T08:56:11.479Z,74.51
2018-08-13T08:57:21.586Z,74.61
2018-08-13T08:58:46.328Z,74.32
2018-08-13T08:59:56.597Z,74.32
2018-08-13T09:01:06.423Z,74.54
2018-08-13T09:02:16.493Z,74.22
2018-08-13T09:03:26.864Z,74.54
2018-08-13T09:04:38.007Z,74.35
2018-08-13T09:05:48.153Z,74.54
2018-08-13T09:06:58.473Z,74.35
2018-08-13T09:08:08.299Z,74.84
2018-08-13T09:09:18.343Z,74.84
2018-08-13T09:10:28.246Z,74.54
2018-08-13T09:11:38.348Z,74.54
2018-08-13T09:12:48.425Z,74.64
2018-08-13T09:13:58.501Z,74.64
2018-08-13T09:15:08.719Z,74.29
2018-08-13T09:16:18.803Z,74.25
2018-08-13T09:17:28.365Z,74.77
2018-08-13T09:18:38.496Z,74.58
2018-08-13T09:19:48.593Z,74.58
2018-08-13T09:20:58.427Z,74.68
2018-08-13T09:22:08.321Z,74.87
2018-08-13T09:23:18.411Z,74.77
2018-08-13T09:24:28.430Z,74.81
2018-08-13T09:25:38.738Z,74.71
2018-08-13T09:26:49.012Z,74.91
2018-08-13T09:27:59.132Z,75.01
2018-08-13T09:29:09.253Z,74.91
2018-08-13T09:30:19.324Z,74.71
2018-08-13T09:31:28.872Z,74.81
2018-08-13T09:32:38.703Z,74.71
2018-08-13T09:33:48.622Z,74.91
2018-08-13T09:34:58.493Z,74.95
2018-08-13T09:36:08.590Z,74.85
2018-08-13T09:37:18.689Z,74.85
2018-08-13T09:38:28.507Z,75.15
2018-08-13T09:39:38.607Z,74.75
2018-08-13T09:40:48.768Z,75.04
2018-08-13T09:41:58.853Z,74.95
2018-08-13T09:43:09.132Z,74.95
2018-08-13T09:44:18.947Z,74.69
2018-08-13T09:45:28.617Z,74.98
2018-08-13T09:46:38.704Z,74.88
2018-08-13T09:47:48.543Z,74.82
2018-08-13T09:48:58.415Z,74.4
2018-08-13T09:50:08.256Z,74.33
2018-08-13T09:51:18.098Z,74.43
2018-08-13T09:52:28.201Z,75.02
2018-08-13T09:53:38.349Z,75.22
2018-08-13T09:54:47.988Z,74.92
2018-08-13T09:55:58.063Z,74.82
2018-08-13T09:57:07.884Z,74.43
2018-08-13T09:58:17.959Z,74.33
2018-08-13T09:59:28.032Z,74.43
2018-08-13T10:00:37.849Z,74.37
2018-08-13T10:01:47.938Z,74.37
2018-08-13T10:02:58.034Z,74.47
2018-08-13T10:04:08.139Z,74.37
2018-08-13T10:05:18.243Z,74.47
2018-08-13T10:06:28.345Z,74.6
2018-08-13T10:07:38.437Z,74.41
2018-08-13T10:08:48.275Z,74.7
2018-08-13T10:09:58.361Z,74.6
2018-08-13T10:11:08.194Z,74.6
2018-08-13T10:12:18.061Z,74.51
2018-08-13T10:13:27.908Z,74.44
2018-08-13T10:14:38.039Z,75.13
2018-08-13T10:15:48.133Z,74.93
2018-08-13T10:16:58.228Z,75.23
2018-08-13T10:18:08.378Z,75.23
2018-08-13T10:19:18.481Z,74.35
2018-08-13T10:20:28.379Z,74.44
2018-08-13T10:21:38.307Z,74.68
2018-08-13T10:22:48.414Z,74.77
2018-08-13T10:23:58.504Z,74.68
2018-08-13T10:25:08.388Z,74.77
2018-08-13T10:26:18.503Z,74.29
2018-08-13T10:27:28.697Z,74.68
2018-08-13T10:28:38.812Z,74.58
2018-08-13T10:29:49.028Z,74.68
2018-08-13T10:30:59.603Z,74.58
2018-08-13T10:32:09.738Z,74.77
2018-08-13T10:33:19.838Z,74.58
2018-08-13T10:34:30.120Z,74.58
2018-08-13T10:35:40.245Z,74.77
2018-08-13T10:36:50.348Z,74.81
2018-08-13T10:38:00.626Z,74.62
2018-08-13T10:39:11.030Z,74.75
2018-08-13T10:40:21.170Z,74.46
2018-08-13T10:41:31.277Z,74.26
2018-08-13T10:42:41.128Z,74.46
2018-08-13T10:43:51.279Z,74.55
2018-08-13T10:45:01.112Z,74.55
2018-08-13T10:46:10.938Z,74.46
2018-08-13T10:47:21.047Z,74.26
2018-08-13T10:48:31.179Z,74.59
2018-08-13T10:49:41.509Z,74.29
2018-08-13T10:50:51.428Z,74.29
2018-08-13T10:52:01.534Z,74.19
2018-08-13T10:53:11.630Z,74.29
2018-08-13T10:54:21.709Z,74.19
2018-08-13T10:55:31.810Z,74.59
2018-08-13T10:56:41.672Z,74.43
2018-08-13T10:57:51.821Z,74.63
2018-08-13T10:59:01.668Z,74.13
2018-08-13T11:00:11.785Z,74.04
2018-08-13T11:01:21.960Z,74.33
2018-08-13T11:02:32.113Z,74.63
2018-08-13T11:03:41.960Z,74.63
2018-08-13T11:04:52.043Z,74.63
2018-08-13T11:06:02.145Z,74.17
2018-08-13T11:07:12.026Z,74.17
2018-08-13T11:08:22.105Z,74.07
2018-08-13T11:09:32.214Z,74.56
2018-08-13T11:10:42.315Z,74.56
2018-08-13T11:11:52.429Z,74.56
2018-08-13T11:13:02.827Z,74.07
2018-08-13T11:14:12.422Z,74.07
2018-08-13T11:15:22.527Z,74.27
2018-08-13T11:16:32.652Z,74.37
2018-08-13T11:17:42.743Z,74.5
2018-08-13T11:18:52.894Z,74.3
2018-08-13T11:20:02.978Z,74.01
2018-08-13T11:21:12.819Z,74.5
2018-08-13T11:22:22.906Z,74.4
2018-08-13T11:23:32.734Z,74.6
2018-08-13T11:24:42.615Z,74.01
2018-08-13T11:25:52.708Z,74.01
2018-08-13T11:27:02.837Z,74.34
2018-08-13T11:28:12.958Z,74.34
2018-08-13T11:29:23.056Z,74.34
2018-08-13T11:30:33.320Z,74.34
2018-08-13T11:31:43.419Z,74.04
2018-08-13T11:32:53.276Z,74.83
2018-08-13T11:34:03.314Z,74.48
2018-08-13T11:35:13.156Z,74.87
2018-08-13T11:36:23.359Z,74.48
2018-08-13T11:37:33.466Z,74.48
2018-08-13T11:38:43.575Z,74.48
2018-08-13T11:39:53.672Z,74.48
2018-08-13T11:41:03.792Z,74.97
2018-08-13T11:42:13.905Z,74.18
2018-08-13T11:43:23.746Z,74.51
2018-08-13T11:44:33.594Z,74.41
2018-08-13T11:45:43.674Z,74.41
2018-08-13T11:46:53.259Z,74.31
2018-08-13T11:48:03.413Z,74.31
2018-08-13T11:49:13.731Z,74.31
2018-08-13T11:50:23.863Z,74.44
2018-08-13T11:51:33.955Z,74.44
2018-08-13T11:52:44.038Z,74.51
2018-08-13T11:53:54.167Z,74.55
2018-08-13T11:55:04.281Z,74.35
2018-08-13T11:56:14.360Z,74.15
2018-08-13T11:57:24.586Z,74.84
2018-08-13T11:58:34.485Z,74.44
2018-08-13T11:59:44.635Z,74.65
2018-08-13T12:00:54.845Z,74.55
2018-08-13T12:02:05.340Z,74.35
2018-08-13T12:03:15.776Z,74.29
2018-08-13T12:04:25.883Z,74.68
2018-08-13T12:05:36.023Z,73.89
2018-08-13T12:06:46.112Z,73.99
2018-08-13T12:07:56.203Z,74.19
2018-08-13T12:09:06.031Z,74.13
2018-08-13T12:10:15.892Z,73.83
2018-08-13T12:11:26.019Z,74.38
2018-08-13T12:12:35.847Z,74.19
2018-08-13T12:13:46.177Z,74.29
2018-08-13T12:14:56.266Z,74.48
2018-08-13T12:16:06.351Z,74.19
2018-08-13T12:17:16.463Z,74.88
2018-08-13T12:18:26.555Z,74.58
2018-08-13T12:19:36.505Z,74.58
2018-08-13T12:20:46.457Z,74.29
2018-08-13T12:21:56.302Z,74.19
2018-08-13T12:23:06.380Z,74.29
2018-08-13T12:24:16.515Z,74.98
2018-08-13T12:25:26.644Z,74.88
2018-08-13T12:26:36.759Z,74.88
2018-08-13T12:27:47.091Z,75.01
2018-08-13T12:28:57.203Z,74.29
2018-08-13T12:30:07.291Z,74.58
2018-08-13T12:31:17.363Z,74.52
2018-08-13T12:32:26.935Z,74.72
2018-08-13T12:33:36.788Z,74.52
2018-08-13T12:34:46.669Z,74.62
2018-08-13T12:35:56.785Z,74.72
2018-08-13T12:37:06.894Z,74.62
2018-08-13T12:38:16.743Z,74.32
2018-08-13T12:39:26.847Z,74.42
2018-08-13T12:40:36.951Z,74.91
2018-08-13T12:41:47.077Z,74.52
2018-08-13T12:42:56.912Z,74.91
2018-08-13T12:44:07.018Z,74.52
2018-08-13T12:45:17.126Z,74.68
2018-08-13T12:46:27.201Z,74.52
2018-08-13T12:47:37.339Z,74.32
2018-08-13T12:48:47.449Z,74.52
2018-08-13T12:49:57.527Z,74.82
2018-08-13T12:51:07.846Z,74.91
2018-08-13T12:52:18.125Z,74.72
2018-08-13T12:53:28.223Z,74.52
2018-08-13T12:54:38.051Z,74.62
2018-08-13T12:55:48.157Z,74.72
2018-08-13T12:56:58.008Z,74.82
2018-08-13T12:58:08.287Z,74.22
2018-08-13T12:59:18.373Z,74.42
2018-08-13T13:00:28.213Z,74.22
2018-08-13T13:01:38.045Z,74.58
2018-08-13T13:02:48.123Z,74.22
2018-08-13T13:03:58.212Z,74.29
2018-08-13T13:05:08.311Z,74.68
2018-08-13T13:06:18.171Z,74.48
2018-08-13T13:07:28.265Z,74.48
2018-08-13T13:08:37.839Z,74.48
2018-08-13T13:09:48.006Z,74.38
2018-08-13T13:10:58.294Z,74.52
2018-08-13T13:12:08.110Z,74.88
2018-08-13T13:13:18.192Z,74.22
2018-08-13T13:14:27.760Z,74.91
2018-08-13T13:15:37.920Z,75.01
2018-08-13T13:16:48.015Z,74.82
2018-08-13T13:17:58.137Z,74.42
2018-08-13T13:19:08.266Z,74.22
2018-08-13T13:20:18.096Z,74.42
2018-08-13T13:21:28.111Z,74.32
2018-08-13T13:22:38.181Z,74.52
2018-08-13T13:23:48.260Z,74.52
2018-08-13T13:24:58.343Z,74.32
2018-08-13T13:26:08.605Z,74.42
2018-08-13T13:27:18.458Z,74.62
2018-08-13T13:28:28.537Z,74.22
2018-08-13T13:29:38.626Z,74.52
2018-08-13T13:30:48.728Z,74.72
2018-08-13T13:31:58.587Z,74.52
2018-08-13T13:33:08.728Z,74.52
2018-08-13T13:34:18.812Z,74.62
2018-08-13T13:35:28.384Z,74.62
2018-08-13T13:36:38.208Z,74.42
2018-08-13T13:37:48.283Z,74.32
2018-08-13T13:38:58.420Z,74.52
2018-08-13T13:40:08.518Z,74.42
2018-08-13T13:41:18.510Z,74.42
2018-08-13T13:42:28.604Z,74.72
2018-08-13T13:43:38.692Z,74.42
2018-08-13T13:44:48.571Z,74.32
2018-08-13T13:45:58.410Z,74.52
2018-08-13T13:47:08.702Z,74.52
2018-08-13T13:48:18.509Z,74.32
2018-08-13T13:49:28.647Z,74.42
2018-08-13T13:50:38.476Z,74.62
2018-08-13T13:51:48.611Z,74.52
2018-08-13T13:52:59.013Z,74.22
2018-08-13T13:54:09.098Z,74.32
2018-08-13T13:55:19.210Z,74.78
2018-08-13T13:56:29.382Z,74.78
2018-08-13T13:57:39.212Z,74.88
2018-08-13T13:58:49.054Z,74.88
2018-08-13T13:59:58.911Z,74.78
2018-08-13T14:01:08.768Z,74.78
2018-08-13T14:02:18.916Z,74.78
2018-08-13T14:03:29.000Z,74.88
2018-08-13T14:04:39.089Z,74.38
2018-08-13T14:05:48.945Z,74.88
2018-08-13T14:06:59.062Z,74.88
2018-08-13T14:08:08.930Z,74.38
2018-08-13T14:09:18.831Z,74.58
2018-08-13T14:10:28.932Z,74.58
2018-08-13T14:11:38.756Z,74.48
2018-08-13T14:12:48.851Z,74.38
2018-08-13T14:13:59.012Z,74.68
2018-08-13T14:15:09.103Z,74.88
2018-08-13T14:16:18.646Z,74.88
2018-08-13T14:17:28.816Z,74.65
2018-08-13T14:18:39.208Z,74.74
2018-08-13T14:19:49.310Z,74.78
2018-08-13T14:20:59.418Z,74.74
2018-08-13T14:22:09.266Z,74.94
2018-08-13T14:23:19.364Z,74.55
2018-08-13T14:24:29.493Z,74.68
2018-08-13T14:25:39.660Z,74.88
2018-08-13T14:26:49.754Z,74.68
2018-08-13T14:27:59.917Z,74.68
2018-08-13T14:29:10.538Z,74.68
2018-08-13T14:30:20.372Z,74.68
2018-08-13T14:31:30.512Z,74.74
2018-08-13T14:32:40.936Z,75.14
2018-08-13T14:33:51.046Z,74.65
2018-08-13T14:35:01.148Z,74.84
2018-08-13T14:36:11.255Z,74.94
2018-08-13T14:37:21.409Z,75.14
2018-08-13T14:38:31.512Z,74.94
2018-08-13T14:39:41.586Z,74.94
2018-08-13T14:40:51.930Z,75.04
2018-08-13T14:42:02.062Z,74.55
2018-08-13T14:43:12.154Z,74.65
2018-08-13T14:44:22.254Z,75.14
2018-08-13T14:45:32.340Z,74.71
2018-08-13T14:46:42.542Z,74.71
2018-08-13T14:47:52.645Z,75.2
2018-08-13T14:49:02.848Z,75.1
2018-08-13T14:50:13.008Z,75
2018-08-13T14:51:22.971Z,75
2018-08-13T14:52:33.134Z,74.9
2018-08-13T14:53:43.222Z,74.71
2018-08-13T14:54:53.322Z,75.1
2018-08-13T14:56:03.545Z,75.2
2018-08-13T14:57:13.686Z,75
2018-08-13T14:58:23.794Z,75.2
2018-08-13T14:59:33.965Z,75
2018-08-13T15:00:43.794Z,75.1
2018-08-13T15:01:53.884Z,75.1
2018-08-13T15:03:03.996Z,74.67
2018-08-13T15:04:14.105Z,74.8
2018-08-13T15:05:24.212Z,74.97
2018-08-13T15:06:34.478Z,74.67
2018-08-13T15:07:44.574Z,74.77
2018-08-13T15:08:54.160Z,74.57
2018-08-13T15:10:03.998Z,74.87
2018-08-13T15:11:14.071Z,74.87
2018-08-13T15:12:23.901Z,74.87
2018-08-13T15:13:34.000Z,74.87
2018-08-13T15:14:44.089Z,74.8
2018-08-13T15:15:54.178Z,74.87
2018-08-13T15:17:04.257Z,74.9
2018-08-13T15:18:14.338Z,74.87
2018-08-13T15:19:24.434Z,75.46
2018-08-13T15:20:34.526Z,74.77
2018-08-13T15:21:44.608Z,74.67
2018-08-13T15:22:54.699Z,74.77
2018-08-13T15:24:04.806Z,75.26
2018-08-13T15:25:14.946Z,75.26
2018-08-13T15:26:25.047Z,75.56
2018-08-13T15:27:35.514Z,75.26
2018-08-13T15:28:46.608Z,75.56
2018-08-13T15:29:56.935Z,75.66
2018-08-13T15:31:07.054Z,75.56
2018-08-13T15:32:17.196Z,75.42
2018-08-13T15:33:27.384Z,75.62
2018-08-13T15:34:37.657Z,75.13
2018-08-13T15:35:47.802Z,75.42
2018-08-13T15:36:57.627Z,75.23